Terminal Aerodrome Forecast
Issued by NWS

Home | Current Version | Previous Version | Graphics & Text | Print | Product List | Glossary On
Versions: 1 2 3 4 5 6 7 8 9 10 11 12 13 14 15 16 17 18 19
000
FTUS43 KUNR 232320
TAFGCC
TAF
KGCC 232320Z 2400/2424 25008KT P6SM BKN250
     FM240300 27009KT P6SM OVC080
      TEMPO 2403/2406 P6SM -SHRA
     FM241600 32009KT P6SM BKN100
     FM242100 35006KT P6SM OVC050=

USA.gov is the U.S. government's official web portal to all federal, state and local government web resources and services.